createdAt,value
2022-09-25T00:31:57.824Z,32.08
2022-09-25T00:34:27.152Z,32.03
2022-09-25T00:37:20.548Z,28.33
2022-09-25T00:39:52.226Z,31.58
2022-09-25T00:42:27.136Z,34.47
2022-09-25T00:45:13.357Z,36.92
2022-09-25T00:51:02.923Z,31.38
2022-09-25T00:53:36.775Z,33.75
2022-09-25T01:05:26.471Z,30.50
2022-09-25T01:07:59.136Z,30.25
2022-09-25T01:10:33.392Z,30.20
2022-09-25T01:13:01.269Z,35.45
2022-09-25T01:15:43.167Z,27.02
2022-09-25T01:18:15.078Z,25.50
2022-09-25T01:21:05.716Z,30.20
2022-09-25T01:24:02.490Z,31.40
2022-09-25T01:26:43.286Z,33.75
2022-09-25T01:29:50.873Z,32.03
2022-09-25T01:32:50.797Z,30.52
2022-09-25T01:35:45.735Z,37.17
2022-09-25T01:38:47.598Z,32.42
2022-09-25T01:42:06.978Z,39.42
2022-09-25T01:44:45.560Z,32.85
2022-09-25T01:47:18.608Z,37.45
2022-09-25T01:50:26.606Z,40.33
2022-09-25T01:52:59.415Z,36.50
2022-09-25T02:02:10.501Z,37.35
2022-09-25T02:04:42.682Z,37.60
2022-09-25T02:07:16.664Z,37.42
2022-09-25T02:10:20.775Z,42.60
2022-09-25T02:12:52.116Z,31.60
2022-09-25T02:15:39.712Z,35.42
2022-09-25T02:18:31.498Z,37.67
2022-09-25T02:21:12.455Z,40.45
2022-09-25T02:23:57.944Z,38.13
2022-09-25T02:26:32.620Z,34.53
2022-09-25T02:29:31.570Z,36.85
2022-09-25T02:32:02.577Z,30.27
2022-09-25T02:34:32.577Z,32.35
2022-09-25T02:37:00.428Z,30.23
2022-09-25T02:40:02.355Z,28.45
2022-09-25T02:42:46.282Z,29.15
2022-09-25T02:46:10.335Z,33.53
2022-09-25T02:48:55.221Z,36.33
2022-09-25T02:51:45.420Z,34.15
2022-09-25T02:55:29.566Z,30.67
2022-09-25T02:58:09.043Z,34.53
2022-09-25T03:00:40.144Z,32.42
2022-09-25T03:03:12.294Z,38.38
2022-09-25T03:05:41.986Z,32.78
2022-09-25T03:11:29.016Z,29.02
2022-09-25T03:13:58.545Z,32.70
2022-09-25T03:16:39.533Z,29.05
2022-09-25T03:19:08.238Z,28.90
2022-09-25T03:21:36.262Z,30.60
2022-09-25T03:24:28.371Z,29.95
2022-09-25T03:26:56.292Z,29.33
2022-09-25T03:29:24.745Z,32.80
2022-09-25T03:31:52.415Z,29.02
2022-09-25T03:34:21.037Z,35.08
2022-09-25T03:37:19.608Z,34.00
2022-09-25T03:39:46.292Z,33.35
2022-09-25T03:42:26.311Z,31.65
2022-09-25T03:44:55.983Z,37.17
2022-09-25T03:50:20.446Z,38.47
2022-09-25T03:52:48.471Z,35.53
2022-09-25T03:55:16.358Z,33.28
2022-09-25T03:57:49.225Z,37.95
2022-09-25T04:00:17.802Z,51.95
2022-09-25T04:03:10.329Z,39.15
2022-09-25T04:05:39.286Z,37.55
2022-09-25T04:11:03.863Z,42.47
2022-09-25T04:13:41.703Z,39.20
2022-09-25T04:16:34.461Z,33.47
2022-09-25T04:19:02.249Z,39.88
2022-09-25T04:21:30.402Z,33.38
2022-09-25T04:24:16.977Z,36.28
2022-09-25T04:26:44.400Z,32.95
2022-09-25T04:29:15.654Z,31.25
2022-09-25T04:31:44.422Z,33.97
2022-09-25T04:34:43.353Z,32.88
2022-09-25T04:37:10.506Z,34.50
2022-09-25T04:39:43.420Z,30.13
2022-09-25T04:42:10.513Z,31.52
2022-09-25T04:44:38.165Z,30.27
2022-09-25T04:47:06.205Z,31.20
2022-09-25T04:49:39.500Z,30.33
2022-09-25T04:52:06.458Z,26.65
2022-09-25T04:54:34.194Z,29.15
2022-09-25T04:57:02.766Z,28.65
2022-09-25T04:59:30.312Z,28.55
2022-09-25T05:01:58.509Z,26.98
2022-09-25T05:04:26.328Z,30.80
2022-09-25T05:09:46.159Z,27.23
2022-09-25T05:12:18.483Z,30.40
2022-09-25T05:15:11.676Z,30.30
2022-09-25T05:17:42.061Z,28.35
2022-09-25T05:20:14.502Z,26.98
2022-09-25T05:22:42.190Z,33.30
2022-09-25T05:28:26.648Z,34.42
2022-09-25T05:30:54.807Z,38.78
2022-09-25T05:33:22.270Z,36.85
2022-09-25T05:38:46.555Z,31.98
2022-09-25T05:41:18.672Z,34.63
2022-09-25T05:43:47.876Z,37.72
2022-09-25T05:46:16.592Z,31.67
2022-09-25T05:48:44.489Z,41.85
2022-09-25T05:51:12.179Z,36.95
2022-09-25T05:53:41.190Z,45.38
2022-09-25T05:56:08.496Z,40.08
2022-09-25T05:58:36.443Z,42.13
2022-09-25T06:01:05.927Z,38.33
2022-09-25T06:03:34.585Z,35.75
2022-09-25T06:06:03.688Z,33.22
2022-09-25T06:08:33.369Z,39.00
2022-09-25T06:11:03.472Z,36.72
2022-09-25T06:13:35.010Z,37.92
2022-09-25T06:16:03.218Z,33.88
2022-09-25T06:18:30.207Z,36.03
2022-09-25T06:21:22.719Z,36.47
2022-09-25T06:23:50.245Z,38.05
2022-09-25T06:26:18.937Z,37.92
2022-09-25T06:28:46.261Z,41.22
2022-09-25T06:31:15.235Z,34.83
2022-09-25T06:33:43.832Z,32.42
2022-09-25T06:36:12.357Z,36.13
2022-09-25T06:38:42.064Z,35.05
2022-09-25T06:41:34.943Z,37.75
2022-09-25T06:44:28.730Z,35.10
2022-09-25T06:46:56.397Z,34.08
2022-09-25T06:49:24.451Z,34.05
2022-09-25T06:51:52.728Z,29.90
2022-09-25T06:54:20.243Z,33.70
2022-09-25T06:56:49.876Z,36.97
2022-09-25T06:59:18.308Z,31.40
2022-09-25T07:01:46.255Z,35.50
2022-09-25T08:05:39.934Z,17.70
2022-09-25T08:20:09.569Z,13.30
2022-09-25T09:24:30.073Z,16.73
2022-09-25T09:30:04.508Z,15.52
2022-09-25T09:32:45.695Z,16.40
2022-09-25T09:35:51.950Z,18.23
2022-09-25T09:38:44.257Z,16.95
2022-09-25T09:41:58.002Z,15.30
2022-09-25T09:45:11.658Z,15.68
2022-09-25T09:48:15.197Z,19.02
2022-09-25T09:51:30.938Z,14.32
2022-09-25T09:54:06.454Z,17.80
2022-09-25T09:56:44.442Z,16.45
2022-09-25T09:59:23.323Z,14.30
2022-09-25T10:02:13.190Z,16.83
2022-09-25T10:04:41.399Z,15.10
2022-09-25T10:07:12.692Z,13.00
2022-09-25T10:09:50.938Z,15.25
2022-09-25T10:12:39.137Z,14.88
2022-09-25T10:15:58.043Z,15.07
2022-09-25T10:18:35.738Z,12.65
2022-09-25T10:21:12.525Z,11.50
2022-09-25T10:23:46.896Z,13.07
2022-09-25T10:26:38.000Z,10.60
2022-09-25T10:29:27.341Z,10.93
2022-09-25T10:32:02.235Z,10.23
2022-09-25T10:34:31.898Z,11.60
2022-09-25T10:37:19.757Z,14.27
2022-09-25T10:40:02.252Z,13.25
2022-09-25T10:43:23.655Z,12.25
2022-09-25T10:46:14.758Z,15.18
2022-09-25T10:52:27.280Z,11.68
2022-09-25T10:55:14.731Z,14.05
2022-09-25T10:57:42.723Z,11.38
2022-09-25T11:08:06.773Z,15.00
2022-09-25T11:10:48.109Z,13.45
2022-09-25T11:13:27.974Z,15.82
2022-09-25T11:15:59.869Z,13.43
2022-09-25T11:18:45.532Z,12.93
2022-09-25T11:21:36.471Z,12.68
2022-09-25T11:27:53.398Z,11.80
2022-09-25T11:33:42.859Z,10.57
2022-09-25T11:36:24.943Z,10.00
2022-09-25T11:39:55.178Z,10.23
2022-09-25T11:42:36.178Z,12.45
2022-09-25T11:45:36.394Z,12.43
2022-09-25T11:48:12.920Z,11.00
2022-09-25T11:51:09.792Z,10.70
2022-09-25T11:53:44.308Z,12.30
2022-09-25T11:56:52.013Z,14.02
2022-09-25T12:00:07.742Z,14.65
2022-09-25T12:02:54.428Z,12.23
2022-09-25T12:05:49.249Z,14.00
2022-09-25T12:08:36.608Z,12.60
2022-09-25T12:11:22.433Z,12.35
2022-09-25T12:14:34.629Z,13.23
2022-09-25T12:17:20.994Z,9.15
2022-09-25T12:20:04.781Z,9.60
2022-09-25T12:22:52.118Z,10.10
2022-09-25T12:25:54.140Z,8.45
2022-09-25T12:28:48.379Z,11.50
2022-09-25T12:31:25.547Z,13.15
2022-09-25T12:34:20.640Z,9.45
2022-09-25T12:37:06.121Z,7.43
2022-09-25T12:39:37.313Z,13.38
2022-09-25T12:45:19.806Z,10.75
2022-09-25T12:47:51.360Z,8.18
2022-09-25T12:50:30.455Z,11.27
2022-09-25T12:53:23.311Z,10.25
2022-09-25T12:56:03.959Z,9.15
2022-09-25T13:02:21.385Z,8.50
2022-09-25T13:05:21.956Z,9.45
2022-09-25T13:08:29.556Z,7.32
2022-09-25T13:11:14.538Z,8.85
2022-09-25T13:16:45.300Z,10.55
2022-09-25T13:19:24.279Z,9.60
2022-09-25T13:21:59.591Z,8.20
2022-09-25T13:24:26.463Z,8.63
2022-09-25T13:26:59.018Z,8.07
2022-09-25T13:29:36.351Z,9.10
2022-09-25T13:32:19.875Z,7.60
2022-09-25T13:34:54.105Z,8.10
2022-09-25T13:37:27.645Z,7.75
2022-09-25T13:40:14.784Z,11.10
2022-09-25T13:42:46.163Z,6.93
2022-09-25T13:45:29.163Z,8.00
2022-09-25T13:47:58.975Z,8.77
2022-09-25T13:50:37.423Z,7.15
2022-09-25T13:53:39.787Z,9.10
2022-09-25T13:56:15.102Z,5.82
2022-09-25T13:59:19.305Z,5.35
2022-09-25T14:02:45.735Z,5.47
2022-09-25T14:05:21.578Z,6.60
2022-09-25T14:08:16.991Z,7.28
2022-09-25T14:10:46.840Z,9.75
2022-09-25T14:13:43.080Z,5.28
2022-09-25T14:16:19.994Z,5.63
2022-09-25T14:18:54.166Z,16.42
2022-09-25T14:21:22.959Z,8.50
2022-09-25T14:23:55.641Z,6.25
2022-09-25T14:26:26.497Z,5.57
2022-09-25T14:28:58.141Z,5.47
2022-09-25T14:31:32.499Z,4.72
2022-09-25T14:34:23.794Z,4.38
2022-09-25T14:37:29.448Z,6.97
2022-09-25T14:40:11.614Z,6.35
2022-09-25T14:43:29.708Z,5.78
2022-09-25T14:46:05.377Z,7.70
2022-09-25T14:51:43.543Z,6.93
2022-09-25T14:54:22.776Z,6.15
2022-09-25T14:56:55.561Z,8.45
2022-09-25T15:02:36.888Z,6.03
2022-09-25T15:05:33.089Z,10.15
2022-09-25T15:08:18.986Z,7.03
2022-09-25T15:10:46.143Z,8.98
2022-09-25T15:13:19.861Z,5.45
2022-09-25T15:16:16.191Z,6.90
2022-09-25T15:18:54.156Z,5.00
2022-09-25T15:21:30.880Z,8.45
2022-09-25T15:24:28.230Z,5.55
2022-09-25T15:27:06.728Z,3.88
2022-09-25T15:29:37.291Z,6.75
2022-09-25T15:32:39.973Z,7.07
2022-09-25T15:35:18.368Z,7.97
2022-09-25T15:37:47.164Z,7.40
2022-09-25T15:40:16.941Z,6.93
2022-09-25T15:42:48.552Z,7.20
2022-09-25T15:45:42.121Z,6.95
2022-09-25T15:48:20.749Z,9.73
2022-09-25T15:50:48.933Z,5.63
2022-09-25T15:53:29.237Z,8.73
2022-09-25T15:56:30.900Z,7.38
2022-09-25T15:59:02.598Z,7.47
2022-09-25T16:01:53.718Z,5.95
2022-09-25T16:04:49.660Z,8.05
2022-09-25T16:07:42.430Z,4.55
2022-09-25T16:10:10.388Z,4.15
2022-09-25T16:12:50.113Z,7.28
2022-09-25T16:15:27.349Z,4.55
2022-09-25T16:18:00.163Z,10.48
2022-09-25T16:20:36.760Z,6.00
2022-09-25T16:23:17.001Z,4.95
2022-09-25T16:25:45.004Z,10.35
2022-09-25T16:28:30.593Z,10.15
2022-09-25T16:31:02.932Z,7.45
2022-09-25T16:33:33.082Z,5.95
2022-09-25T16:36:16.842Z,7.00
2022-09-25T16:39:10.260Z,5.40
2022-09-25T16:41:43.147Z,6.53
2022-09-25T16:44:51.730Z,6.03
2022-09-25T16:47:21.057Z,7.32
2022-09-25T16:50:12.827Z,9.95
2022-09-25T16:52:43.255Z,4.95
2022-09-25T16:55:28.877Z,4.18
2022-09-25T16:57:58.896Z,4.72
2022-09-25T17:00:29.758Z,7.57
2022-09-25T17:02:58.438Z,5.03
2022-09-25T17:05:30.577Z,4.18
2022-09-25T17:08:06.457Z,5.47
2022-09-25T17:10:39.259Z,5.28
2022-09-25T17:13:06.227Z,4.68
2022-09-25T17:15:41.105Z,6.75
2022-09-25T17:18:16.521Z,5.22
2022-09-25T17:20:44.439Z,6.78
2022-09-25T17:23:19.421Z,6.82
2022-09-25T17:26:07.086Z,5.80
2022-09-25T17:28:34.123Z,5.28
2022-09-25T17:31:11.535Z,4.07
2022-09-25T17:33:40.163Z,4.47
2022-09-25T17:36:11.670Z,6.97
2022-09-25T17:38:40.402Z,4.90
2022-09-25T17:44:24.133Z,5.72
2022-09-25T17:46:55.597Z,3.83
2022-09-25T17:49:23.317Z,6.18
2022-09-25T17:52:20.478Z,4.60
2022-09-25T17:55:23.042Z,5.25
2022-09-25T17:57:50.215Z,10.70
2022-09-25T18:00:44.569Z,7.40
2022-09-25T18:03:14.037Z,5.97
2022-09-25T18:06:11.186Z,6.13
2022-09-25T18:08:38.537Z,7.40
2022-09-25T18:11:12.120Z,4.63
2022-09-25T18:13:41.823Z,6.85
2022-09-25T18:16:25.086Z,5.40
2022-09-25T18:19:10.781Z,6.53
2022-09-25T18:21:56.636Z,6.90
2022-09-25T18:24:30.399Z,3.58
2022-09-25T18:26:58.440Z,4.38
2022-09-25T18:29:26.196Z,10.88
2022-09-25T18:31:54.124Z,7.75
2022-09-25T18:34:22.801Z,6.40
2022-09-25T18:36:50.189Z,6.18
2022-09-25T18:39:20.457Z,7.40
2022-09-25T18:41:48.346Z,6.68
2022-09-25T18:44:23.466Z,5.57
2022-09-25T18:46:51.810Z,10.55
2022-09-25T18:49:20.185Z,7.95
2022-09-25T18:51:53.228Z,6.43
2022-09-25T18:54:46.321Z,4.45
2022-09-25T18:57:14.637Z,4.10
2022-09-25T18:59:42.173Z,5.53
2022-09-25T19:02:31.083Z,7.63
2022-09-25T19:04:58.655Z,4.72
2022-09-25T19:07:28.374Z,4.43
2022-09-25T19:09:58.174Z,9.43
2022-09-25T19:12:26.249Z,10.50
2022-09-25T19:14:59.153Z,11.10
2022-09-25T19:17:26.161Z,19.10
2022-09-25T19:22:46.161Z,11.27
2022-09-25T19:25:20.118Z,9.23
2022-09-25T19:27:54.155Z,9.65
2022-09-25T19:30:22.179Z,8.60
2022-09-25T19:32:50.902Z,6.95
2022-09-25T19:35:18.742Z,6.45
2022-09-25T19:37:46.187Z,9.07
2022-09-25T19:40:32.639Z,7.30
2022-09-25T19:43:01.151Z,4.43
2022-09-25T19:45:29.785Z,7.20
2022-09-25T19:48:03.165Z,4.53
2022-09-25T19:50:30.361Z,8.90
2022-09-25T19:53:04.950Z,5.13
2022-09-25T19:55:37.031Z,5.28
2022-09-25T19:58:36.827Z,7.63
2022-09-25T20:01:16.518Z,5.80
2022-09-25T20:03:49.779Z,6.25
2022-09-25T20:06:42.570Z,6.15
2022-09-25T20:09:11.594Z,5.18
2022-09-25T20:11:38.447Z,4.82
2022-09-25T20:14:07.458Z,7.75
2022-09-25T20:16:34.501Z,5.15
2022-09-25T20:19:07.630Z,5.20
2022-09-25T20:21:38.741Z,6.38
2022-09-25T20:24:07.605Z,14.40
2022-09-25T20:26:36.293Z,4.85
2022-09-25T20:29:13.976Z,5.55
2022-09-25T20:31:45.336Z,5.68
2022-09-25T20:34:20.273Z,9.23
2022-09-25T20:36:53.675Z,6.20
2022-09-25T20:39:22.685Z,4.03
2022-09-25T20:41:50.871Z,5.00
2022-09-25T20:44:18.148Z,7.03
2022-09-25T20:46:50.194Z,7.07
2022-09-25T20:49:20.213Z,8.82
2022-09-25T20:51:48.561Z,7.00
2022-09-25T20:54:16.138Z,7.35
2022-09-25T20:56:45.333Z,6.07
2022-09-25T20:59:12.588Z,5.55
2022-09-25T21:01:44.765Z,4.97
2022-09-25T21:04:18.343Z,6.53
2022-09-25T21:06:50.264Z,5.40
2022-09-25T21:09:25.376Z,5.03
2022-09-25T21:11:58.306Z,5.65
2022-09-25T21:14:28.283Z,5.60
2022-09-25T21:16:57.438Z,7.07
2022-09-25T21:19:27.918Z,6.00
2022-09-25T21:22:01.189Z,4.97
2022-09-25T21:24:28.537Z,11.02
2022-09-25T21:26:56.445Z,7.70
2022-09-25T21:29:24.117Z,6.88
2022-09-25T21:31:54.702Z,6.30
2022-09-25T21:34:28.191Z,6.50
2022-09-25T21:36:56.212Z,4.30
2022-09-25T21:39:29.031Z,6.45
2022-09-25T21:41:56.149Z,7.43
2022-09-25T21:44:25.786Z,6.47
2022-09-25T21:46:54.336Z,5.97
2022-09-25T21:49:26.616Z,4.93
2022-09-25T21:51:54.379Z,8.98
2022-09-25T21:54:22.518Z,8.18
2022-09-25T21:56:50.182Z,8.48
2022-09-25T21:59:18.246Z,8.15
2022-09-25T22:04:42.427Z,5.18
2022-09-25T22:07:14.150Z,10.45
2022-09-25T22:09:42.401Z,7.78
2022-09-25T22:12:10.412Z,8.00
2022-09-25T22:14:42.193Z,7.15
2022-09-25T22:17:10.233Z,7.53
2022-09-25T22:19:43.319Z,6.43
2022-09-25T22:22:10.157Z,9.40
2022-09-25T22:24:38.196Z,8.05
2022-09-25T22:27:11.224Z,8.60
2022-09-25T22:29:38.150Z,8.38
2022-09-25T22:32:06.136Z,8.95
2022-09-25T22:34:34.156Z,7.20
2022-09-25T22:37:06.209Z,7.40
2022-09-25T22:39:34.119Z,4.90
2022-09-25T22:42:02.235Z,4.88
2022-09-25T22:44:30.248Z,6.40
2022-09-25T22:47:02.406Z,6.53
2022-09-25T22:49:32.131Z,9.07
2022-09-25T22:52:00.261Z,10.05
2022-09-25T22:54:28.184Z,7.30
2022-09-25T22:57:25.171Z,5.68
2022-09-25T22:59:52.224Z,9.25
2022-09-25T23:02:20.439Z,7.20
2022-09-25T23:04:49.472Z,7.18
2022-09-25T23:07:16.134Z,5.85
2022-09-25T23:09:44.188Z,9.07
2022-09-25T23:12:12.111Z,8.63
2022-09-25T23:17:32.183Z,7.43
2022-09-25T23:20:00.262Z,8.73
2022-09-25T23:22:32.218Z,11.25
2022-09-25T23:25:00.164Z,12.50
2022-09-25T23:27:33.237Z,6.90
2022-09-25T23:30:00.167Z,7.68
2022-09-25T23:32:28.125Z,9.00
2022-09-25T23:34:56.161Z,6.40
2022-09-25T23:37:24.310Z,6.85
2022-09-25T23:39:56.176Z,7.63
2022-09-25T23:42:24.140Z,6.28
2022-09-25T23:45:21.153Z,5.97
2022-09-25T23:47:48.153Z,6.40
2022-09-25T23:50:16.244Z,8.68
2022-09-25T23:52:44.136Z,6.13
2022-09-25T23:55:12.163Z,11.07
2022-09-25T23:57:40.174Z,6.15
